Terminal Aerodrome Forecast
Issued by NWS

Home | Current Version | Previous Version | Text Only | Print | Product List | Glossary On
Versions: 1 2 3 4 5 6 7 8 9 10 11 12 13
750
FTUS46 KMTR 281120
TAFSTS
TAF
KSTS 281120Z 2812/2912 34010KT P6SM FEW250
     FM281600 33017G24KT P6SM FEW250
     FM282100 32010G16KT P6SM FEW250=

USA.gov is the U.S. government's official web portal to all federal, state and local government web resources and services.